sensor_id;sensor_type;location;lat;lon;timestamp;pressure;altitude;pressure_sealevel;temperature;humidity
29935;BME280;19905;53.370;-6.314;2022-10-31T00:01:38;100190.50;;;12.71;100.00
29935;BME280;19905;53.370;-6.314;2022-10-31T00:04:08;100187.09;;;12.89;100.00
29935;BME280;19905;53.370;-6.314;2022-10-31T00:06:37;100193.25;;;12.89;100.00
29935;BME280;19905;53.370;-6.314;2022-10-31T00:09:05;100184.03;;;12.93;100.00
29935;BME280;19905;53.370;-6.314;2022-10-31T00:11:34;100189.25;;;13.13;100.00
29935;BME280;19905;53.370;-6.314;2022-10-31T00:14:03;100194.44;;;13.05;100.00
29935;BME280;19905;53.370;-6.314;2022-10-31T00:16:31;100194.03;;;13.00;100.00
29935;BME280;19905;53.370;-6.314;2022-10-31T00:19:03;100191.25;;;12.91;100.00
29935;BME280;19905;53.370;-6.314;2022-10-31T00:21:33;100202.34;;;12.77;100.00
29935;BME280;19905;53.370;-6.314;2022-10-31T00:24:03;100202.47;;;12.85;100.00
29935;BME280;19905;53.370;-6.314;2022-10-31T00:26:32;100204.97;;;12.77;100.00
29935;BME280;19905;53.370;-6.314;2022-10-31T00:29:01;100201.63;;;12.85;100.00
29935;BME280;19905;53.370;-6.314;2022-10-31T00:31:29;100197.72;;;12.89;100.00
29935;BME280;19905;53.370;-6.314;2022-10-31T00:33:59;100203.69;;;12.91;100.00
29935;BME280;19905;53.370;-6.314;2022-10-31T00:36:29;100197.41;;;12.92;100.00
29935;BME280;19905;53.370;-6.314;2022-10-31T00:39:00;100184.72;;;12.86;100.00
29935;BME280;19905;53.370;-6.314;2022-10-31T00:41:28;100186.72;;;12.84;100.00
29935;BME280;19905;53.370;-6.314;2022-10-31T00:43:57;100192.41;;;12.89;100.00
29935;BME280;19905;53.370;-6.314;2022-10-31T00:46:26;100188.53;;;12.83;100.00
29935;BME280;19905;53.370;-6.314;2022-10-31T00:48:55;100181.06;;;12.96;100.00
29935;BME280;19905;53.370;-6.314;2022-10-31T00:51:24;100175.59;;;13.08;100.00
29935;BME280;19905;53.370;-6.314;2022-10-31T00:53:53;100173.53;;;13.02;100.00
29935;BME280;19905;53.370;-6.314;2022-10-31T00:56:23;100176.06;;;12.93;100.00
29935;BME280;19905;53.370;-6.314;2022-10-31T00:58:53;100157.75;;;13.00;100.00
29935;BME280;19905;53.370;-6.314;2022-10-31T01:01:22;100155.81;;;13.02;100.00
29935;BME280;19905;53.370;-6.314;2022-10-31T01:03:51;100147.97;;;13.01;100.00
29935;BME280;19905;53.370;-6.314;2022-10-31T01:06:19;100156.91;;;13.00;100.00
29935;BME280;19905;53.370;-6.314;2022-10-31T01:08:48;100152.56;;;13.08;100.00
29935;BME280;19905;53.370;-6.314;2022-10-31T01:11:18;100146.41;;;13.08;100.00
29935;BME280;19905;53.370;-6.314;2022-10-31T01:13:51;100146.56;;;13.06;100.00
29935;BME280;19905;53.370;-6.314;2022-10-31T01:16:22;100153.16;;;13.02;100.00
29935;BME280;19905;53.370;-6.314;2022-10-31T01:18:51;100144.06;;;13.05;100.00
29935;BME280;19905;53.370;-6.314;2022-10-31T01:21:22;100152.22;;;12.93;100.00
29935;BME280;19905;53.370;-6.314;2022-10-31T01:23:53;100143.81;;;12.98;100.00
29935;BME280;19905;53.370;-6.314;2022-10-31T01:26:24;100150.81;;;12.89;100.00
29935;BME280;19905;53.370;-6.314;2022-10-31T01:28:56;100146.31;;;13.00;100.00
29935;BME280;19905;53.370;-6.314;2022-10-31T01:31:27;100152.59;;;12.98;100.00
29935;BME280;19905;53.370;-6.314;2022-10-31T01:33:58;100144.38;;;13.02;100.00
29935;BME280;19905;53.370;-6.314;2022-10-31T01:36:28;100138.94;;;12.93;100.00
29935;BME280;19905;53.370;-6.314;2022-10-31T01:38:59;100149.44;;;12.85;100.00
29935;BME280;19905;53.370;-6.314;2022-10-31T01:41:31;100150.53;;;12.92;100.00
29935;BME280;19905;53.370;-6.314;2022-10-31T01:44:03;100144.97;;;12.86;100.00
29935;BME280;19905;53.370;-6.314;2022-10-31T01:46:33;100142.13;;;12.69;100.00
29935;BME280;19905;53.370;-6.314;2022-10-31T01:49:09;100140.88;;;12.64;100.00
29935;BME280;19905;53.370;-6.314;2022-10-31T01:51:46;100134.06;;;12.61;100.00
29935;BME280;19905;53.370;-6.314;2022-10-31T01:54:18;100152.22;;;12.93;100.00
29935;BME280;19905;53.370;-6.314;2022-10-31T01:56:52;100127.13;;;13.15;100.00
29935;BME280;19905;53.370;-6.314;2022-10-31T01:59:27;100117.81;;;13.11;100.00
29935;BME280;19905;53.370;-6.314;2022-10-31T02:01:58;100117.81;;;13.11;100.00
29935;BME280;19905;53.370;-6.314;2022-10-31T02:04:28;100103.94;;;13.17;100.00
29935;BME280;19905;53.370;-6.314;2022-10-31T02:07:01;100110.19;;;13.26;100.00
29935;BME280;19905;53.370;-6.314;2022-10-31T02:09:31;100105.72;;;13.27;100.00
29935;BME280;19905;53.370;-6.314;2022-10-31T02:12:02;100106.88;;;13.24;100.00
29935;BME280;19905;53.370;-6.314;2022-10-31T02:14:33;100092.63;;;13.25;100.00
29935;BME280;19905;53.370;-6.314;2022-10-31T02:17:03;100108.56;;;13.15;100.00
29935;BME280;19905;53.370;-6.314;2022-10-31T02:19:37;100113.31;;;13.12;100.00
29935;BME280;19905;53.370;-6.314;2022-10-31T02:22:13;100104.38;;;13.13;100.00
29935;BME280;19905;53.370;-6.314;2022-10-31T02:24:52;100100.28;;;13.18;100.00
29935;BME280;19905;53.370;-6.314;2022-10-31T02:27:50;100115.97;;;13.12;100.00
29935;BME280;19905;53.370;-6.314;2022-10-31T02:30:31;100105.56;;;13.01;100.00
29935;BME280;19905;53.370;-6.314;2022-10-31T02:33:17;100111.94;;;12.80;100.00
29935;BME280;19905;53.370;-6.314;2022-10-31T02:35:55;100109.91;;;12.64;100.00
29935;BME280;19905;53.370;-6.314;2022-10-31T02:38:38;100107.00;;;12.58;100.00
29935;BME280;19905;53.370;-6.314;2022-10-31T02:41:16;100106.22;;;12.48;100.00
29935;BME280;19905;53.370;-6.314;2022-10-31T02:43:54;100109.41;;;12.41;100.00
29935;BME280;19905;53.370;-6.314;2022-10-31T02:46:33;100096.59;;;12.46;100.00
29935;BME280;19905;53.370;-6.314;2022-10-31T02:49:07;100091.97;;;12.49;100.00
29935;BME280;19905;53.370;-6.314;2022-10-31T02:51:39;100095.91;;;12.44;100.00
29935;BME280;19905;53.370;-6.314;2022-10-31T02:54:17;100098.38;;;12.46;100.00
29935;BME280;19905;53.370;-6.314;2022-10-31T02:56:52;100075.38;;;12.56;100.00
29935;BME280;19905;53.370;-6.314;2022-10-31T02:59:23;100072.28;;;12.61;100.00
29935;BME280;19905;53.370;-6.314;2022-10-31T03:02:32;100064.41;;;12.69;100.00
29935;BME280;19905;53.370;-6.314;2022-10-31T03:08:11;100045.47;;;12.91;100.00
29935;BME280;19905;53.370;-6.314;2022-10-31T03:10:47;100047.84;;;12.94;100.00
29935;BME280;19905;53.370;-6.314;2022-10-31T03:13:28;100049.28;;;12.89;100.00
29935;BME280;19905;53.370;-6.314;2022-10-31T03:16:06;100054.69;;;12.87;100.00
29935;BME280;19905;53.370;-6.314;2022-10-31T03:18:39;100060.19;;;13.04;100.00
29935;BME280;19905;53.370;-6.314;2022-10-31T03:21:14;100055.97;;;13.11;100.00
29935;BME280;19905;53.370;-6.314;2022-10-31T03:23:44;100043.69;;;13.10;100.00
29935;BME280;19905;53.370;-6.314;2022-10-31T03:26:16;100042.03;;;13.09;100.00
29935;BME280;19905;53.370;-6.314;2022-10-31T03:28:50;100037.41;;;13.11;100.00
29935;BME280;19905;53.370;-6.314;2022-10-31T03:31:28;100042.94;;;13.17;100.00
29935;BME280;19905;53.370;-6.314;2022-10-31T03:34:00;100041.19;;;13.08;100.00
29935;BME280;19905;53.370;-6.314;2022-10-31T03:36:33;100044.84;;;13.07;100.00
29935;BME280;19905;53.370;-6.314;2022-10-31T03:39:05;100034.38;;;13.06;100.00
29935;BME280;19905;53.370;-6.314;2022-10-31T03:44:10;100043.09;;;13.16;100.00
29935;BME280;19905;53.370;-6.314;2022-10-31T03:46:42;100042.84;;;13.09;100.00
29935;BME280;19905;53.370;-6.314;2022-10-31T03:49:11;100021.41;;;13.03;100.00
29935;BME280;19905;53.370;-6.314;2022-10-31T03:51:46;100032.56;;;13.06;100.00
29935;BME280;19905;53.370;-6.314;2022-10-31T03:54:22;100025.22;;;13.18;100.00
29935;BME280;19905;53.370;-6.314;2022-10-31T03:56:56;100015.84;;;13.23;100.00
29935;BME280;19905;53.370;-6.314;2022-10-31T03:59:29;100014.72;;;13.26;100.00
29935;BME280;19905;53.370;-6.314;2022-10-31T04:02:03;100009.16;;;13.19;100.00
29935;BME280;19905;53.370;-6.314;2022-10-31T04:04:35;100014.56;;;13.28;100.00
29935;BME280;19905;53.370;-6.314;2022-10-31T04:07:08;100006.97;;;13.33;100.00
29935;BME280;19905;53.370;-6.314;2022-10-31T04:09:41;100004.56;;;13.39;100.00
29935;BME280;19905;53.370;-6.314;2022-10-31T04:12:13;100009.34;;;13.36;100.00
29935;BME280;19905;53.370;-6.314;2022-10-31T04:14:44;99997.34;;;13.32;100.00
29935;BME280;19905;53.370;-6.314;2022-10-31T04:17:17;100006.47;;;13.29;100.00
29935;BME280;19905;53.370;-6.314;2022-10-31T04:19:47;100023.56;;;13.17;100.00
29935;BME280;19905;53.370;-6.314;2022-10-31T04:22:17;100033.63;;;13.13;100.00
29935;BME280;19905;53.370;-6.314;2022-10-31T04:24:46;100030.75;;;13.07;100.00
29935;BME280;19905;53.370;-6.314;2022-10-31T04:27:15;100033.47;;;12.97;100.00
29935;BME280;19905;53.370;-6.314;2022-10-31T04:29:43;100029.72;;;12.90;100.00
29935;BME280;19905;53.370;-6.314;2022-10-31T04:32:16;100013.59;;;12.83;100.00
29935;BME280;19905;53.370;-6.314;2022-10-31T04:34:46;100019.28;;;12.88;100.00
29935;BME280;19905;53.370;-6.314;2022-10-31T04:37:16;100012.84;;;12.91;100.00
29935;BME280;19905;53.370;-6.314;2022-10-31T04:39:45;100025.72;;;13.04;100.00
29935;BME280;19905;53.370;-6.314;2022-10-31T04:42:14;100011.47;;;13.05;100.00
29935;BME280;19905;53.370;-6.314;2022-10-31T04:44:42;100005.84;;;13.35;100.00
29935;BME280;19905;53.370;-6.314;2022-10-31T04:47:11;100003.19;;;13.35;100.00
29935;BME280;19905;53.370;-6.314;2022-10-31T04:49:39;100012.81;;;13.36;100.00
29935;BME280;19905;53.370;-6.314;2022-10-31T04:52:08;100009.50;;;13.34;100.00
29935;BME280;19905;53.370;-6.314;2022-10-31T04:54:38;99995.16;;;13.27;100.00
29935;BME280;19905;53.370;-6.314;2022-10-31T04:57:07;100002.13;;;13.28;100.00
29935;BME280;19905;53.370;-6.314;2022-10-31T04:59:35;99994.53;;;13.15;100.00
29935;BME280;19905;53.370;-6.314;2022-10-31T05:02:04;99997.31;;;13.14;100.00
29935;BME280;19905;53.370;-6.314;2022-10-31T05:04:33;99996.00;;;13.28;100.00
29935;BME280;19905;53.370;-6.314;2022-10-31T05:07:02;99994.03;;;13.30;100.00
29935;BME280;19905;53.370;-6.314;2022-10-31T05:09:31;99981.31;;;13.33;100.00
29935;BME280;19905;53.370;-6.314;2022-10-31T05:12:01;99989.03;;;13.27;100.00
29935;BME280;19905;53.370;-6.314;2022-10-31T05:14:30;99991.38;;;13.30;100.00
29935;BME280;19905;53.370;-6.314;2022-10-31T05:16:58;99993.78;;;13.23;100.00
29935;BME280;19905;53.370;-6.314;2022-10-31T05:19:27;99990.44;;;13.21;100.00
29935;BME280;19905;53.370;-6.314;2022-10-31T05:21:55;99984.06;;;13.14;100.00
29935;BME280;19905;53.370;-6.314;2022-10-31T05:24:24;99983.56;;;13.28;100.00
29935;BME280;19905;53.370;-6.314;2022-10-31T05:26:53;99984.25;;;13.30;100.00
29935;BME280;19905;53.370;-6.314;2022-10-31T05:29:22;99978.41;;;13.27;100.00
29935;BME280;19905;53.370;-6.314;2022-10-31T05:31:51;99992.50;;;13.45;100.00
29935;BME280;19905;53.370;-6.314;2022-10-31T05:34:19;99975.22;;;13.41;100.00
29935;BME280;19905;53.370;-6.314;2022-10-31T05:36:48;99968.72;;;13.35;100.00
29935;BME280;19905;53.370;-6.314;2022-10-31T05:39:17;99962.66;;;13.43;100.00
29935;BME280;19905;53.370;-6.314;2022-10-31T05:41:45;99955.66;;;13.42;100.00
29935;BME280;19905;53.370;-6.314;2022-10-31T05:44:15;99956.66;;;13.41;100.00
29935;BME280;19905;53.370;-6.314;2022-10-31T05:46:45;99962.66;;;13.43;100.00
29935;BME280;19905;53.370;-6.314;2022-10-31T05:49:14;99956.53;;;13.42;100.00
29935;BME280;19905;53.370;-6.314;2022-10-31T05:51:45;99962.94;;;13.40;100.00
29935;BME280;19905;53.370;-6.314;2022-10-31T05:54:14;99973.84;;;13.37;100.00
29935;BME280;19905;53.370;-6.314;2022-10-31T05:56:42;99971.44;;;13.43;100.00
29935;BME280;19905;53.370;-6.314;2022-10-31T05:59:11;99970.75;;;13.41;100.00
29935;BME280;19905;53.370;-6.314;2022-10-31T06:01:40;99962.66;;;13.43;100.00
29935;BME280;19905;53.370;-6.314;2022-10-31T06:04:10;99972.72;;;13.57;100.00
29935;BME280;19905;53.370;-6.314;2022-10-31T06:06:38;99958.16;;;13.61;100.00
29935;BME280;19905;53.370;-6.314;2022-10-31T06:09:07;99963.47;;;13.61;100.00
29935;BME280;19905;53.370;-6.314;2022-10-31T06:11:36;99958.75;;;13.55;100.00
29935;BME280;19905;53.370;-6.314;2022-10-31T06:14:04;99953.66;;;13.62;100.00
29935;BME280;19905;53.370;-6.314;2022-10-31T06:16:33;99949.59;;;13.50;100.00
29935;BME280;19905;53.370;-6.314;2022-10-31T06:19:02;99958.91;;;13.54;100.00
29935;BME280;19905;53.370;-6.314;2022-10-31T06:21:32;99955.78;;;13.58;100.00
29935;BME280;19905;53.370;-6.314;2022-10-31T06:24:01;99951.38;;;13.67;100.00
29935;BME280;19905;53.370;-6.314;2022-10-31T06:26:30;99946.44;;;13.72;100.00
29935;BME280;19905;53.370;-6.314;2022-10-31T06:28:59;99942.59;;;13.66;100.00
29935;BME280;19905;53.370;-6.314;2022-10-31T06:31:30;99950.66;;;13.57;100.00
29935;BME280;19905;53.370;-6.314;2022-10-31T06:33:58;99941.44;;;13.69;100.00
29935;BME280;19905;53.370;-6.314;2022-10-31T06:36:27;99957.69;;;13.66;100.00
29935;BME280;19905;53.370;-6.314;2022-10-31T06:38:57;99960.34;;;13.66;100.00
29935;BME280;19905;53.370;-6.314;2022-10-31T06:41:27;99963.28;;;13.63;100.00
29935;BME280;19905;53.370;-6.314;2022-10-31T06:43:56;99967.94;;;13.61;100.00
29935;BME280;19905;53.370;-6.314;2022-10-31T06:46:31;99975.09;;;13.68;100.00
29935;BME280;19905;53.370;-6.314;2022-10-31T06:49:01;99970.13;;;13.65;100.00
29935;BME280;19905;53.370;-6.314;2022-10-31T06:51:32;99968.66;;;13.71;100.00
29935;BME280;19905;53.370;-6.314;2022-10-31T06:54:04;99960.69;;;13.71;100.00
29935;BME280;19905;53.370;-6.314;2022-10-31T06:56:34;99960.16;;;13.67;100.00
29935;BME280;19905;53.370;-6.314;2022-10-31T06:59:03;99956.69;;;13.67;100.00
29935;BME280;19905;53.370;-6.314;2022-10-31T07:01:33;99968.75;;;13.61;100.00
29935;BME280;19905;53.370;-6.314;2022-10-31T07:04:03;99965.88;;;13.55;100.00
29935;BME280;19905;53.370;-6.314;2022-10-31T07:06:33;99977.66;;;13.52;100.00
29935;BME280;19905;53.370;-6.314;2022-10-31T07:09:04;99976.13;;;13.50;100.00
29935;BME280;19905;53.370;-6.314;2022-10-31T07:11:36;99976.28;;;13.48;100.00
29935;BME280;19905;53.370;-6.314;2022-10-31T07:14:05;99983.63;;;13.54;100.00
29935;BME280;19905;53.370;-6.314;2022-10-31T07:16:36;99995.78;;;13.65;100.00
29935;BME280;19905;53.370;-6.314;2022-10-31T07:19:06;99993.16;;;13.65;100.00
29935;BME280;19905;53.370;-6.314;2022-10-31T07:21:34;99994.50;;;13.69;100.00
29935;BME280;19905;53.370;-6.314;2022-10-31T07:24:05;100000.81;;;13.68;100.00
29935;BME280;19905;53.370;-6.314;2022-10-31T07:26:34;99997.50;;;13.66;100.00
29935;BME280;19905;53.370;-6.314;2022-10-31T07:29:05;100002.63;;;13.67;100.00
29935;BME280;19905;53.370;-6.314;2022-10-31T07:31:40;100011.97;;;13.71;100.00
29935;BME280;19905;53.370;-6.314;2022-10-31T07:34:11;100013.03;;;13.61;100.00
29935;BME280;19905;53.370;-6.314;2022-10-31T07:36:41;100007.34;;;13.56;100.00
29935;BME280;19905;53.370;-6.314;2022-10-31T07:39:14;100016.38;;;13.63;100.00
29935;BME280;19905;53.370;-6.314;2022-10-31T07:41:43;100025.69;;;13.67;100.00
29935;BME280;19905;53.370;-6.314;2022-10-31T07:44:12;100024.50;;;13.61;100.00
29935;BME280;19905;53.370;-6.314;2022-10-31T07:46:50;100024.03;;;13.66;100.00
29935;BME280;19905;53.370;-6.314;2022-10-31T07:49:30;100031.16;;;13.65;100.00
29935;BME280;19905;53.370;-6.314;2022-10-31T07:51:59;100026.69;;;13.66;100.00
29935;BME280;19905;53.370;-6.314;2022-10-31T07:54:31;100020.44;;;13.75;100.00
29935;BME280;19905;53.370;-6.314;2022-10-31T07:57:02;100025.44;;;13.78;100.00
29935;BME280;19905;53.370;-6.314;2022-10-31T07:59:32;100019.47;;;13.76;100.00
29935;BME280;19905;53.370;-6.314;2022-10-31T08:02:03;100015.75;;;13.69;100.00
29935;BME280;19905;53.370;-6.314;2022-10-31T08:04:33;100017.47;;;13.78;100.00
29935;BME280;19905;53.370;-6.314;2022-10-31T08:07:03;100015.88;;;13.85;100.00
29935;BME280;19905;53.370;-6.314;2022-10-31T08:09:35;100017.69;;;13.85;100.00
29935;BME280;19905;53.370;-6.314;2022-10-31T08:12:12;100012.06;;;13.88;100.00
29935;BME280;19905;53.370;-6.314;2022-10-31T08:14:41;100022.19;;;13.84;100.00
29935;BME280;19905;53.370;-6.314;2022-10-31T08:17:09;100010.56;;;13.85;100.00
29935;BME280;19905;53.370;-6.314;2022-10-31T08:19:39;100006.34;;;14.01;100.00
29935;BME280;19905;53.370;-6.314;2022-10-31T08:22:08;100003.22;;;14.05;100.00
29935;BME280;19905;53.370;-6.314;2022-10-31T08:24:49;99997.44;;;14.10;100.00
29935;BME280;19905;53.370;-6.314;2022-10-31T08:27:19;99988.47;;;14.11;100.00
29935;BME280;19905;53.370;-6.314;2022-10-31T08:29:49;99990.00;;;14.13;100.00
29935;BME280;19905;53.370;-6.314;2022-10-31T08:32:18;99993.63;;;14.12;100.00
29935;BME280;19905;53.370;-6.314;2022-10-31T08:34:46;99999.25;;;14.09;100.00
29935;BME280;19905;53.370;-6.314;2022-10-31T08:37:15;99992.47;;;14.15;100.00
29935;BME280;19905;53.370;-6.314;2022-10-31T08:39:49;99994.19;;;14.24;100.00
29935;BME280;19905;53.370;-6.314;2022-10-31T08:42:19;99995.00;;;14.24;100.00
29935;BME280;19905;53.370;-6.314;2022-10-31T08:44:47;99981.91;;;14.23;100.00
29935;BME280;19905;53.370;-6.314;2022-10-31T08:47:16;99981.25;;;14.21;100.00
29935;BME280;19905;53.370;-6.314;2022-10-31T08:49:44;99994.53;;;14.29;100.00
29935;BME280;19905;53.370;-6.314;2022-10-31T08:52:15;99990.28;;;14.36;100.00
29935;BME280;19905;53.370;-6.314;2022-10-31T08:54:43;99976.28;;;14.26;100.00
29935;BME280;19905;53.370;-6.314;2022-10-31T08:57:14;99973.81;;;14.33;100.00
29935;BME280;19905;53.370;-6.314;2022-10-31T08:59:43;99978.25;;;14.50;100.00
29935;BME280;19905;53.370;-6.314;2022-10-31T09:02:13;99978.06;;;14.52;100.00
29935;BME280;19905;53.370;-6.314;2022-10-31T09:04:42;99978.16;;;14.42;100.00
29935;BME280;19905;53.370;-6.314;2022-10-31T09:07:11;99979.75;;;14.53;100.00
29935;BME280;19905;53.370;-6.314;2022-10-31T09:09:48;99982.91;;;14.56;100.00
29935;BME280;19905;53.370;-6.314;2022-10-31T09:12:19;99991.81;;;14.47;100.00
29935;BME280;19905;53.370;-6.314;2022-10-31T09:14:50;99990.13;;;14.46;100.00
29935;BME280;19905;53.370;-6.314;2022-10-31T09:17:22;99997.72;;;14.33;100.00
29935;BME280;19905;53.370;-6.314;2022-10-31T09:19:56;100011.47;;;14.28;100.00
29935;BME280;19905;53.370;-6.314;2022-10-31T09:22:30;100006.34;;;14.27;100.00
29935;BME280;19905;53.370;-6.314;2022-10-31T09:24:58;100009.28;;;14.23;100.00
29935;BME280;19905;53.370;-6.314;2022-10-31T09:27:29;100015.31;;;14.26;100.00
29935;BME280;19905;53.370;-6.314;2022-10-31T09:30:00;100007.81;;;14.21;100.00
29935;BME280;19905;53.370;-6.314;2022-10-31T09:32:31;100028.34;;;14.19;100.00
29935;BME280;19905;53.370;-6.314;2022-10-31T09:35:01;100018.44;;;14.21;100.00
29935;BME280;19905;53.370;-6.314;2022-10-31T09:37:30;100017.16;;;14.33;100.00
29935;BME280;19905;53.370;-6.314;2022-10-31T09:40:00;100011.84;;;14.33;100.00
29935;BME280;19905;53.370;-6.314;2022-10-31T09:42:45;100004.34;;;14.29;100.00
29935;BME280;19905;53.370;-6.314;2022-10-31T09:45:21;100011.47;;;14.28;100.00
29935;BME280;19905;53.370;-6.314;2022-10-31T09:48:08;100009.19;;;14.33;100.00
29935;BME280;19905;53.370;-6.314;2022-10-31T09:50:46;100006.56;;;14.41;100.00
29935;BME280;19905;53.370;-6.314;2022-10-31T09:53:25;99987.97;;;14.41;100.00
29935;BME280;19905;53.370;-6.314;2022-10-31T09:55:59;99987.31;;;14.47;100.00
29935;BME280;19905;53.370;-6.314;2022-10-31T09:58:35;99990.13;;;14.46;100.00
29935;BME280;19905;53.370;-6.314;2022-10-31T10:01:17;99983.25;;;14.53;100.00
29935;BME280;19905;53.370;-6.314;2022-10-31T10:03:53;99965.16;;;14.65;100.00
29935;BME280;19905;53.370;-6.314;2022-10-31T10:06:25;99981.44;;;14.70;100.00
29935;BME280;19905;53.370;-6.314;2022-10-31T11:12:20;99948.38;;;16.11;100.00
29935;BME280;19905;53.370;-6.314;2022-10-31T11:14:55;99945.25;;;15.99;100.00
29935;BME280;19905;53.370;-6.314;2022-10-31T11:17:29;99939.63;;;15.86;100.00
29935;BME280;19905;53.370;-6.314;2022-10-31T11:20:00;99941.44;;;15.94;100.00
29935;BME280;19905;53.370;-6.314;2022-10-31T11:22:31;99953.09;;;15.85;100.00
29935;BME280;19905;53.370;-6.314;2022-10-31T11:24:59;99948.44;;;15.95;100.00
29935;BME280;19905;53.370;-6.314;2022-10-31T11:27:28;99945.31;;;15.75;100.00
29935;BME280;19905;53.370;-6.314;2022-10-31T11:30:06;99953.47;;;15.73;100.00
29935;BME280;19905;53.370;-6.314;2022-10-31T11:32:35;99963.44;;;15.63;100.00
29935;BME280;19905;53.370;-6.314;2022-10-31T11:35:12;99954.13;;;15.59;100.00
29935;BME280;19905;53.370;-6.314;2022-10-31T11:37:47;99967.56;;;15.58;100.00
29935;BME280;19905;53.370;-6.314;2022-10-31T11:40:18;99976.75;;;15.22;100.00
29935;BME280;19905;53.370;-6.314;2022-10-31T11:42:49;99979.47;;;14.72;100.00
29935;BME280;19905;53.370;-6.314;2022-10-31T11:45:29;99975.84;;;14.47;100.00
29935;BME280;19905;53.370;-6.314;2022-10-31T11:48:02;99986.56;;;14.29;100.00
29935;BME280;19905;53.370;-6.314;2022-10-31T11:50:39;99991.34;;;14.17;100.00
29935;BME280;19905;53.370;-6.314;2022-10-31T11:53:13;99981.44;;;14.02;100.00
29935;BME280;19905;53.370;-6.314;2022-10-31T11:55:44;99982.09;;;13.95;100.00
29935;BME280;19905;53.370;-6.314;2022-10-31T11:58:21;99975.63;;;13.98;100.00
29935;BME280;19905;53.370;-6.314;2022-10-31T12:00:58;99977.13;;;14.01;100.00
29935;BME280;19905;53.370;-6.314;2022-10-31T12:03:33;99976.47;;;13.98;100.00
29935;BME280;19905;53.370;-6.314;2022-10-31T12:06:08;99959.25;;;14.03;100.00
29935;BME280;19905;53.370;-6.314;2022-10-31T12:08:40;99961.56;;;14.06;100.00
29935;BME280;19905;53.370;-6.314;2022-10-31T12:11:23;99959.63;;;14.16;100.00
29935;BME280;19905;53.370;-6.314;2022-10-31T12:14:05;99954.81;;;14.19;100.00
29935;BME280;19905;53.370;-6.314;2022-10-31T12:16:44;99944.72;;;14.23;100.00
29935;BME280;19905;53.370;-6.314;2022-10-31T12:35:08;99919.38;;;14.37;100.00
29935;BME280;19905;53.370;-6.314;2022-10-31T12:37:52;99912.09;;;14.47;100.00
29935;BME280;19905;53.370;-6.314;2022-10-31T12:40:33;99915.28;;;14.51;100.00
29935;BME280;19905;53.370;-6.314;2022-10-31T12:43:16;99909.81;;;14.60;100.00
29935;BME280;19905;53.370;-6.314;2022-10-31T12:45:53;99893.25;;;14.66;100.00
29935;BME280;19905;53.370;-6.314;2022-10-31T12:51:45;99891.41;;;14.75;100.00
29935;BME280;19905;53.370;-6.314;2022-10-31T12:54:30;99877.81;;;14.94;100.00
29935;BME280;19905;53.370;-6.314;2022-10-31T12:57:10;99880.47;;;15.11;100.00
29935;BME280;19905;53.370;-6.314;2022-10-31T12:59:43;99866.16;;;15.20;100.00
29935;BME280;19905;53.370;-6.314;2022-10-31T13:02:22;99850.53;;;15.25;100.00
29935;BME280;19905;53.370;-6.314;2022-10-31T13:04:56;99853.84;;;15.27;100.00
29935;BME280;19905;53.370;-6.314;2022-10-31T13:07:32;99853.53;;;15.22;100.00
29935;BME280;19905;53.370;-6.314;2022-10-31T13:10:08;99847.84;;;15.25;100.00
29935;BME280;19905;53.370;-6.314;2022-10-31T13:12:43;99852.72;;;15.21;100.00
29935;BME280;19905;53.370;-6.314;2022-10-31T13:15:18;99854.88;;;15.26;100.00
29935;BME280;19905;53.370;-6.314;2022-10-31T13:17:53;99837.25;;;15.17;100.00
29935;BME280;19905;53.370;-6.314;2022-10-31T13:20:40;99844.91;;;15.04;100.00
29935;BME280;19905;53.370;-6.314;2022-10-31T13:23:18;99851.88;;;15.05;100.00
29935;BME280;19905;53.370;-6.314;2022-10-31T13:26:15;99860.03;;;14.95;100.00
29935;BME280;19905;53.370;-6.314;2022-10-31T13:28:48;99860.19;;;14.85;100.00
29935;BME280;19905;53.370;-6.314;2022-10-31T13:31:20;99859.88;;;14.80;100.00
29935;BME280;19905;53.370;-6.314;2022-10-31T13:33:54;99855.19;;;14.82;100.00
29935;BME280;19905;53.370;-6.314;2022-10-31T13:36:31;99856.19;;;14.73;100.00
29935;BME280;19905;53.370;-6.314;2022-10-31T13:39:14;99858.03;;;14.81;100.00
29935;BME280;19905;53.370;-6.314;2022-10-31T13:41:59;99864.34;;;14.71;100.00
29935;BME280;19905;53.370;-6.314;2022-10-31T13:44:35;99864.50;;;14.70;100.00
29935;BME280;19905;53.370;-6.314;2022-10-31T13:47:22;99849.03;;;14.65;100.00
29935;BME280;19905;53.370;-6.314;2022-10-31T13:49:51;99834.91;;;14.65;100.00
29935;BME280;19905;53.370;-6.314;2022-10-31T13:52:24;99836.25;;;14.69;100.00
29935;BME280;19905;53.370;-6.314;2022-10-31T13:54:55;99832.91;;;14.59;100.00
29935;BME280;19905;53.370;-6.314;2022-10-31T13:57:31;99821.91;;;14.45;100.00
29935;BME280;19905;53.370;-6.314;2022-10-31T14:00:06;99826.88;;;14.40;100.00
29935;BME280;19905;53.370;-6.314;2022-10-31T14:02:52;99839.88;;;14.52;100.00
29935;BME280;19905;53.370;-6.314;2022-10-31T14:05:30;99846.38;;;14.49;100.00
29935;BME280;19905;53.370;-6.314;2022-10-31T14:08:03;99836.22;;;14.61;100.00
29935;BME280;19905;53.370;-6.314;2022-10-31T14:10:36;99823.63;;;14.63;100.00
29935;BME280;19905;53.370;-6.314;2022-10-31T14:13:14;99820.47;;;14.59;100.00
29935;BME280;19905;53.370;-6.314;2022-10-31T14:15:53;99817.13;;;14.65;100.00
29935;BME280;19905;53.370;-6.314;2022-10-31T14:18:33;99816.31;;;14.65;100.00
29935;BME280;19905;53.370;-6.314;2022-10-31T14:21:14;99825.78;;;14.59;100.00
29935;BME280;19905;53.370;-6.314;2022-10-31T14:23:43;99814.00;;;14.62;100.00
29935;BME280;19905;53.370;-6.314;2022-10-31T14:26:31;99819.94;;;14.56;100.00
29935;BME280;19905;53.370;-6.314;2022-10-31T14:29:22;99818.31;;;14.55;100.00
29935;BME280;19905;53.370;-6.314;2022-10-31T14:31:55;99805.66;;;14.57;100.00